sensor_id;sensor_type;location;lat;lon;timestamp;pressure;altitude;pressure_sealevel;temperature
71463;BMP180;59266;52.608;13.260;2023-06-26T00:00:31;101227.00;;;18.70
71463;BMP180;59266;52.608;13.260;2023-06-26T00:03:01;101228.00;;;18.70
71463;BMP180;59266;52.608;13.260;2023-06-26T00:05:28;101226.00;;;18.70
71463;BMP180;59266;52.608;13.260;2023-06-26T00:07:57;101227.00;;;18.70
71463;BMP180;59266;52.608;13.260;2023-06-26T00:10:30;101223.00;;;18.70
71463;BMP180;59266;52.608;13.260;2023-06-26T00:13:03;101223.00;;;18.70
71463;BMP180;59266;52.608;13.260;2023-06-26T00:15:30;101218.00;;;18.60
71463;BMP180;59266;52.608;13.260;2023-06-26T00:18:05;101223.00;;;18.60
71463;BMP180;59266;52.608;13.260;2023-06-26T00:20:31;101223.00;;;18.60
71463;BMP180;59266;52.608;13.260;2023-06-26T00:23:00;101222.00;;;18.50
71463;BMP180;59266;52.608;13.260;2023-06-26T00:25:27;101215.00;;;18.50
71463;BMP180;59266;52.608;13.260;2023-06-26T00:27:54;101214.00;;;18.50
71463;BMP180;59266;52.608;13.260;2023-06-26T00:30:21;101224.00;;;18.60
71463;BMP180;59266;52.608;13.260;2023-06-26T00:32:48;101226.00;;;18.60
71463;BMP180;59266;52.608;13.260;2023-06-26T00:35:18;101230.00;;;18.60
71463;BMP180;59266;52.608;13.260;2023-06-26T00:37:44;101218.00;;;18.60
71463;BMP180;59266;52.608;13.260;2023-06-26T00:40:12;101216.00;;;18.70
71463;BMP180;59266;52.608;13.260;2023-06-26T00:42:39;101209.00;;;18.70
71463;BMP180;59266;52.608;13.260;2023-06-26T00:45:07;101210.00;;;18.60
71463;BMP180;59266;52.608;13.260;2023-06-26T00:47:34;101210.00;;;18.60
71463;BMP180;59266;52.608;13.260;2023-06-26T00:50:12;101213.00;;;18.60
71463;BMP180;59266;52.608;13.260;2023-06-26T00:52:42;101212.00;;;18.70
71463;BMP180;59266;52.608;13.260;2023-06-26T00:55:09;101202.00;;;18.70
71463;BMP180;59266;52.608;13.260;2023-06-26T00:57:36;101208.00;;;18.80
71463;BMP180;59266;52.608;13.260;2023-06-26T01:00:07;101200.00;;;18.90
71463;BMP180;59266;52.608;13.260;2023-06-26T01:02:37;101210.00;;;18.90
71463;BMP180;59266;52.608;13.260;2023-06-26T01:05:07;101207.00;;;19.00
71463;BMP180;59266;52.608;13.260;2023-06-26T01:07:40;101200.00;;;18.90
71463;BMP180;59266;52.608;13.260;2023-06-26T01:10:07;101203.00;;;18.90
71463;BMP180;59266;52.608;13.260;2023-06-26T01:12:34;101198.00;;;19.00
71463;BMP180;59266;52.608;13.260;2023-06-26T01:15:00;101193.00;;;19.10
71463;BMP180;59266;52.608;13.260;2023-06-26T01:17:27;101190.00;;;19.00
71463;BMP180;59266;52.608;13.260;2023-06-26T01:19:59;101192.00;;;18.90
71463;BMP180;59266;52.608;13.260;2023-06-26T01:22:37;101195.00;;;18.90
71463;BMP180;59266;52.608;13.260;2023-06-26T01:25:21;101190.00;;;19.00
71463;BMP180;59266;52.608;13.260;2023-06-26T01:27:58;101196.00;;;19.00
71463;BMP180;59266;52.608;13.260;2023-06-26T01:30:26;101188.00;;;19.00
71463;BMP180;59266;52.608;13.260;2023-06-26T01:32:59;101190.00;;;19.10
71463;BMP180;59266;52.608;13.260;2023-06-26T01:35:26;101183.00;;;19.10
71463;BMP180;59266;52.608;13.260;2023-06-26T01:37:53;101182.00;;;19.10
71463;BMP180;59266;52.608;13.260;2023-06-26T01:40:20;101175.00;;;19.10
71463;BMP180;59266;52.608;13.260;2023-06-26T01:42:47;101174.00;;;19.10
71463;BMP180;59266;52.608;13.260;2023-06-26T01:45:34;101168.00;;;19.10
71463;BMP180;59266;52.608;13.260;2023-06-26T01:48:01;101171.00;;;19.10
71463;BMP180;59266;52.608;13.260;2023-06-26T01:50:31;101168.00;;;19.10
71463;BMP180;59266;52.608;13.260;2023-06-26T01:53:08;101167.00;;;19.00
71463;BMP180;59266;52.608;13.260;2023-06-26T01:55:45;101163.00;;;19.10
71463;BMP180;59266;52.608;13.260;2023-06-26T01:58:23;101162.00;;;19.10
71463;BMP180;59266;52.608;13.260;2023-06-26T02:00:51;101160.00;;;19.10
71463;BMP180;59266;52.608;13.260;2023-06-26T02:03:18;101154.00;;;19.10
71463;BMP180;59266;52.608;13.260;2023-06-26T02:05:45;101161.00;;;19.10
71463;BMP180;59266;52.608;13.260;2023-06-26T02:08:14;101157.00;;;19.10
71463;BMP180;59266;52.608;13.260;2023-06-26T02:10:42;101157.00;;;19.10
71463;BMP180;59266;52.608;13.260;2023-06-26T02:13:08;101149.00;;;19.20
71463;BMP180;59266;52.608;13.260;2023-06-26T02:15:35;101154.00;;;19.10
71463;BMP180;59266;52.608;13.260;2023-06-26T02:18:02;101155.00;;;19.10
71463;BMP180;59266;52.608;13.260;2023-06-26T02:20:29;101144.00;;;19.10
71463;BMP180;59266;52.608;13.260;2023-06-26T02:22:55;101152.00;;;19.10
71463;BMP180;59266;52.608;13.260;2023-06-26T02:25:23;101147.00;;;19.00
71463;BMP180;59266;52.608;13.260;2023-06-26T02:27:50;101149.00;;;18.90
71463;BMP180;59266;52.608;13.260;2023-06-26T02:30:25;101151.00;;;18.90
71463;BMP180;59266;52.608;13.260;2023-06-26T02:32:52;101146.00;;;18.90
71463;BMP180;59266;52.608;13.260;2023-06-26T02:35:20;101156.00;;;18.80
71463;BMP180;59266;52.608;13.260;2023-06-26T02:37:48;101148.00;;;18.70
71463;BMP180;59266;52.608;13.260;2023-06-26T02:40:15;101150.00;;;18.70
71463;BMP180;59266;52.608;13.260;2023-06-26T02:42:42;101145.00;;;18.60
71463;BMP180;59266;52.608;13.260;2023-06-26T02:45:09;101147.00;;;18.70
71463;BMP180;59266;52.608;13.260;2023-06-26T02:47:36;101149.00;;;18.60
71463;BMP180;59266;52.608;13.260;2023-06-26T02:50:06;101147.00;;;18.50
71463;BMP180;59266;52.608;13.260;2023-06-26T02:52:33;101142.00;;;18.50
71463;BMP180;59266;52.608;13.260;2023-06-26T02:55:00;101145.00;;;18.50
71463;BMP180;59266;52.608;13.260;2023-06-26T02:57:29;101134.00;;;18.50
71463;BMP180;59266;52.608;13.260;2023-06-26T02:59:57;101139.00;;;18.50
71463;BMP180;59266;52.608;13.260;2023-06-26T03:02:23;101129.00;;;18.50
71463;BMP180;59266;52.608;13.260;2023-06-26T03:04:50;101127.00;;;18.40
71463;BMP180;59266;52.608;13.260;2023-06-26T03:07:18;101123.00;;;18.40
71463;BMP180;59266;52.608;13.260;2023-06-26T03:09:45;101126.00;;;18.40
71463;BMP180;59266;52.608;13.260;2023-06-26T03:12:15;101128.00;;;18.40
71463;BMP180;59266;52.608;13.260;2023-06-26T03:14:42;101120.00;;;18.40
71463;BMP180;59266;52.608;13.260;2023-06-26T03:17:12;101121.00;;;18.40
71463;BMP180;59266;52.608;13.260;2023-06-26T03:19:39;101116.00;;;18.30
71463;BMP180;59266;52.608;13.260;2023-06-26T03:22:06;101125.00;;;18.40
71463;BMP180;59266;52.608;13.260;2023-06-26T03:24:32;101119.00;;;18.40
71463;BMP180;59266;52.608;13.260;2023-06-26T03:27:00;101115.00;;;18.30
71463;BMP180;59266;52.608;13.260;2023-06-26T03:29:28;101124.00;;;18.40
71463;BMP180;59266;52.608;13.260;2023-06-26T03:31:57;101121.00;;;18.40
71463;BMP180;59266;52.608;13.260;2023-06-26T03:34:25;101113.00;;;18.40
71463;BMP180;59266;52.608;13.260;2023-06-26T03:36:53;101111.00;;;18.50
71463;BMP180;59266;52.608;13.260;2023-06-26T03:39:19;101112.00;;;18.50
71463;BMP180;59266;52.608;13.260;2023-06-26T03:41:53;101108.00;;;18.50
71463;BMP180;59266;52.608;13.260;2023-06-26T03:44:25;101108.00;;;18.40
71463;BMP180;59266;52.608;13.260;2023-06-26T03:46:51;101108.00;;;18.50
71463;BMP180;59266;52.608;13.260;2023-06-26T03:49:19;101110.00;;;18.50
71463;BMP180;59266;52.608;13.260;2023-06-26T03:51:53;101102.00;;;18.60
71463;BMP180;59266;52.608;13.260;2023-06-26T03:54:20;101106.00;;;18.60
71463;BMP180;59266;52.608;13.260;2023-06-26T03:56:46;101119.00;;;18.60
71463;BMP180;59266;52.608;13.260;2023-06-26T03:59:14;101114.00;;;18.60
71463;BMP180;59266;52.608;13.260;2023-06-26T04:01:48;101104.00;;;18.70
71463;BMP180;59266;52.608;13.260;2023-06-26T04:04:19;101110.00;;;18.60
71463;BMP180;59266;52.608;13.260;2023-06-26T04:06:49;101108.00;;;18.80
71463;BMP180;59266;52.608;13.260;2023-06-26T04:09:18;101096.00;;;18.90
71463;BMP180;59266;52.608;13.260;2023-06-26T04:11:49;101101.00;;;18.80
71463;BMP180;59266;52.608;13.260;2023-06-26T04:14:16;101096.00;;;19.00
71463;BMP180;59266;52.608;13.260;2023-06-26T04:16:43;101099.00;;;19.00
71463;BMP180;59266;52.608;13.260;2023-06-26T04:19:10;101102.00;;;19.10
71463;BMP180;59266;52.608;13.260;2023-06-26T04:21:39;101093.00;;;19.30
71463;BMP180;59266;52.608;13.260;2023-06-26T04:24:06;101093.00;;;19.40
71463;BMP180;59266;52.608;13.260;2023-06-26T04:26:33;101094.00;;;19.40
71463;BMP180;59266;52.608;13.260;2023-06-26T04:29:01;101094.00;;;19.40
71463;BMP180;59266;52.608;13.260;2023-06-26T04:31:27;101085.00;;;19.50
71463;BMP180;59266;52.608;13.260;2023-06-26T04:33:55;101085.00;;;19.60
71463;BMP180;59266;52.608;13.260;2023-06-26T04:36:22;101089.00;;;19.70
71463;BMP180;59266;52.608;13.260;2023-06-26T04:38:49;101083.00;;;19.70
71463;BMP180;59266;52.608;13.260;2023-06-26T04:41:18;101088.00;;;19.70
71463;BMP180;59266;52.608;13.260;2023-06-26T04:43:45;101076.00;;;19.70
71463;BMP180;59266;52.608;13.260;2023-06-26T04:46:13;101080.00;;;19.70
71463;BMP180;59266;52.608;13.260;2023-06-26T04:48:42;101079.00;;;19.70
71463;BMP180;59266;52.608;13.260;2023-06-26T04:51:13;101081.00;;;19.70
71463;BMP180;59266;52.608;13.260;2023-06-26T04:53:40;101080.00;;;20.00
71463;BMP180;59266;52.608;13.260;2023-06-26T04:56:07;101076.00;;;20.00
71463;BMP180;59266;52.608;13.260;2023-06-26T04:58:34;101082.00;;;20.10
71463;BMP180;59266;52.608;13.260;2023-06-26T05:01:01;101079.00;;;20.60
71463;BMP180;59266;52.608;13.260;2023-06-26T05:03:29;101070.00;;;20.50
71463;BMP180;59266;52.608;13.260;2023-06-26T05:05:58;101072.00;;;21.20
71463;BMP180;59266;52.608;13.260;2023-06-26T05:08:26;101073.00;;;20.90
71463;BMP180;59266;52.608;13.260;2023-06-26T05:10:53;101071.00;;;21.30
71463;BMP180;59266;52.608;13.260;2023-06-26T05:13:25;101074.00;;;21.30
71463;BMP180;59266;52.608;13.260;2023-06-26T05:15:52;101074.00;;;21.50
71463;BMP180;59266;52.608;13.260;2023-06-26T05:18:19;101073.00;;;21.10
71463;BMP180;59266;52.608;13.260;2023-06-26T05:20:46;101080.00;;;21.40
71463;BMP180;59266;52.608;13.260;2023-06-26T05:23:16;101073.00;;;21.10
71463;BMP180;59266;52.608;13.260;2023-06-26T05:25:44;101072.00;;;21.30
71463;BMP180;59266;52.608;13.260;2023-06-26T05:28:11;101078.00;;;21.40
71463;BMP180;59266;52.608;13.260;2023-06-26T05:30:39;101070.00;;;21.40
71463;BMP180;59266;52.608;13.260;2023-06-26T05:33:09;101071.00;;;21.60
71463;BMP180;59266;52.608;13.260;2023-06-26T05:35:37;101065.00;;;21.70
71463;BMP180;59266;52.608;13.260;2023-06-26T05:38:04;101059.00;;;21.50
71463;BMP180;59266;52.608;13.260;2023-06-26T05:40:31;101061.00;;;21.70
71463;BMP180;59266;52.608;13.260;2023-06-26T05:42:58;101053.00;;;22.00
71463;BMP180;59266;52.608;13.260;2023-06-26T05:45:24;101051.00;;;22.00
71463;BMP180;59266;52.608;13.260;2023-06-26T05:47:53;101047.00;;;22.10
71463;BMP180;59266;52.608;13.260;2023-06-26T05:50:22;101042.00;;;22.30
71463;BMP180;59266;52.608;13.260;2023-06-26T05:52:50;101040.00;;;22.50
71463;BMP180;59266;52.608;13.260;2023-06-26T05:55:18;101029.00;;;23.60
71463;BMP180;59266;52.608;13.260;2023-06-26T05:57:46;101020.00;;;26.30
71463;BMP180;59266;52.608;13.260;2023-06-26T06:00:13;101020.00;;;28.10
71463;BMP180;59266;52.608;13.260;2023-06-26T06:02:43;101024.00;;;29.80
71463;BMP180;59266;52.608;13.260;2023-06-26T06:05:11;101030.00;;;30.60
71463;BMP180;59266;52.608;13.260;2023-06-26T06:07:38;101021.00;;;31.80
71463;BMP180;59266;52.608;13.260;2023-06-26T06:10:05;101016.00;;;31.20
71463;BMP180;59266;52.608;13.260;2023-06-26T06:12:31;101019.00;;;32.30
71463;BMP180;59266;52.608;13.260;2023-06-26T06:14:58;101017.00;;;33.30
71463;BMP180;59266;52.608;13.260;2023-06-26T06:17:25;101020.00;;;34.20
71463;BMP180;59266;52.608;13.260;2023-06-26T06:19:52;101016.00;;;34.50
71463;BMP180;59266;52.608;13.260;2023-06-26T06:22:18;101027.00;;;34.00
71463;BMP180;59266;52.608;13.260;2023-06-26T06:24:45;101033.00;;;36.00
71463;BMP180;59266;52.608;13.260;2023-06-26T06:27:13;101021.00;;;35.20
71463;BMP180;59266;52.608;13.260;2023-06-26T06:29:41;101019.00;;;35.40
71463;BMP180;59266;52.608;13.260;2023-06-26T06:32:07;101026.00;;;35.30
71463;BMP180;59266;52.608;13.260;2023-06-26T06:34:34;101020.00;;;34.60
71463;BMP180;59266;52.608;13.260;2023-06-26T06:37:02;101021.00;;;35.90
71463;BMP180;59266;52.608;13.260;2023-06-26T06:39:29;101029.00;;;37.70
71463;BMP180;59266;52.608;13.260;2023-06-26T06:41:56;101023.00;;;38.10
71463;BMP180;59266;52.608;13.260;2023-06-26T06:44:23;101025.00;;;39.10
71463;BMP180;59266;52.608;13.260;2023-06-26T06:46:49;101028.00;;;39.60
71463;BMP180;59266;52.608;13.260;2023-06-26T06:49:16;101017.00;;;40.60
71463;BMP180;59266;52.608;13.260;2023-06-26T06:51:43;101022.00;;;40.30
71463;BMP180;59266;52.608;13.260;2023-06-26T06:54:09;101023.00;;;41.40
71463;BMP180;59266;52.608;13.260;2023-06-26T06:56:36;101022.00;;;41.80
71463;BMP180;59266;52.608;13.260;2023-06-26T06:59:03;101017.00;;;41.80
71463;BMP180;59266;52.608;13.260;2023-06-26T07:01:31;101020.00;;;41.90
71463;BMP180;59266;52.608;13.260;2023-06-26T07:03:59;101018.00;;;39.50
71463;BMP180;59266;52.608;13.260;2023-06-26T07:06:28;101023.00;;;40.10
71463;BMP180;59266;52.608;13.260;2023-06-26T07:08:57;101020.00;;;41.10
71463;BMP180;59266;52.608;13.260;2023-06-26T07:11:23;101017.00;;;42.50
71463;BMP180;59266;52.608;13.260;2023-06-26T07:13:52;101022.00;;;40.40
71463;BMP180;59266;52.608;13.260;2023-06-26T07:16:20;101020.00;;;40.50
71463;BMP180;59266;52.608;13.260;2023-06-26T07:18:47;101017.00;;;39.80
71463;BMP180;59266;52.608;13.260;2023-06-26T07:21:16;101016.00;;;40.70
71463;BMP180;59266;52.608;13.260;2023-06-26T07:23:43;101012.00;;;41.50
71463;BMP180;59266;52.608;13.260;2023-06-26T07:26:10;101014.00;;;43.50
71463;BMP180;59266;52.608;13.260;2023-06-26T07:28:36;101011.00;;;43.90
71463;BMP180;59266;52.608;13.260;2023-06-26T07:31:03;101013.00;;;43.30
71463;BMP180;59266;52.608;13.260;2023-06-26T07:33:29;101018.00;;;45.00
71463;BMP180;59266;52.608;13.260;2023-06-26T07:35:56;101005.00;;;44.00
71463;BMP180;59266;52.608;13.260;2023-06-26T07:38:23;101019.00;;;45.00
71463;BMP180;59266;52.608;13.260;2023-06-26T07:40:49;101005.00;;;44.00
71463;BMP180;59266;52.608;13.260;2023-06-26T07:43:16;100999.00;;;45.60
71463;BMP180;59266;52.608;13.260;2023-06-26T07:45:43;101001.00;;;45.40
71463;BMP180;59266;52.608;13.260;2023-06-26T07:48:10;101003.00;;;42.80
71463;BMP180;59266;52.608;13.260;2023-06-26T07:50:37;101003.00;;;42.90
71463;BMP180;59266;52.608;13.260;2023-06-26T07:53:04;100999.00;;;44.20
71463;BMP180;59266;52.608;13.260;2023-06-26T07:55:32;101002.00;;;44.40
71463;BMP180;59266;52.608;13.260;2023-06-26T07:57:58;100997.00;;;42.60
71463;BMP180;59266;52.608;13.260;2023-06-26T08:00:26;100995.00;;;43.60
71463;BMP180;59266;52.608;13.260;2023-06-26T08:02:53;100989.00;;;41.90
71463;BMP180;59266;52.608;13.260;2023-06-26T08:05:20;100999.00;;;43.50
71463;BMP180;59266;52.608;13.260;2023-06-26T08:07:47;100993.00;;;45.30
71463;BMP180;59266;52.608;13.260;2023-06-26T08:10:14;100991.00;;;46.60
71463;BMP180;59266;52.608;13.260;2023-06-26T08:12:41;100986.00;;;43.50
71463;BMP180;59266;52.608;13.260;2023-06-26T08:15:09;100985.00;;;44.70
71463;BMP180;59266;52.608;13.260;2023-06-26T08:17:36;100988.00;;;42.70
71463;BMP180;59266;52.608;13.260;2023-06-26T08:20:04;100987.00;;;44.40
71463;BMP180;59266;52.608;13.260;2023-06-26T08:22:36;100986.00;;;45.30
71463;BMP180;59266;52.608;13.260;2023-06-26T08:25:03;100989.00;;;44.10
71463;BMP180;59266;52.608;13.260;2023-06-26T08:27:33;100985.00;;;42.50
71463;BMP180;59266;52.608;13.260;2023-06-26T08:30:00;100986.00;;;41.30
71463;BMP180;59266;52.608;13.260;2023-06-26T08:32:27;100983.00;;;43.20
71463;BMP180;59266;52.608;13.260;2023-06-26T08:34:53;100975.00;;;41.30
71463;BMP180;59266;52.608;13.260;2023-06-26T08:37:26;100976.00;;;43.70
71463;BMP180;59266;52.608;13.260;2023-06-26T08:39:52;100983.00;;;43.20
71463;BMP180;59266;52.608;13.260;2023-06-26T08:42:19;100976.00;;;41.10
71463;BMP180;59266;52.608;13.260;2023-06-26T08:44:46;100977.00;;;40.90
71463;BMP180;59266;52.608;13.260;2023-06-26T08:47:28;100980.00;;;44.10
71463;BMP180;59266;52.608;13.260;2023-06-26T08:50:03;100959.00;;;41.20
71463;BMP180;59266;52.608;13.260;2023-06-26T08:52:36;100962.00;;;42.90
71463;BMP180;59266;52.608;13.260;2023-06-26T08:55:08;100958.00;;;44.90
71463;BMP180;59266;52.608;13.260;2023-06-26T08:57:36;100963.00;;;44.80
71463;BMP180;59266;52.608;13.260;2023-06-26T09:00:03;100960.00;;;44.20
71463;BMP180;59266;52.608;13.260;2023-06-26T09:02:30;100966.00;;;41.10
71463;BMP180;59266;52.608;13.260;2023-06-26T09:05:02;100956.00;;;42.10
71463;BMP180;59266;52.608;13.260;2023-06-26T09:07:29;100955.00;;;44.10
71463;BMP180;59266;52.608;13.260;2023-06-26T09:09:56;100951.00;;;42.10
71463;BMP180;59266;52.608;13.260;2023-06-26T09:12:23;100946.00;;;43.10
71463;BMP180;59266;52.608;13.260;2023-06-26T09:14:51;100950.00;;;42.60
71463;BMP180;59266;52.608;13.260;2023-06-26T09:17:18;100951.00;;;40.80
71463;BMP180;59266;52.608;13.260;2023-06-26T09:19:45;100945.00;;;40.90
71463;BMP180;59266;52.608;13.260;2023-06-26T09:22:14;100949.00;;;42.20
71463;BMP180;59266;52.608;13.260;2023-06-26T09:24:43;100945.00;;;42.70
71463;BMP180;59266;52.608;13.260;2023-06-26T09:27:11;100941.00;;;42.20
71463;BMP180;59266;52.608;13.260;2023-06-26T09:29:39;100935.00;;;42.30
71463;BMP180;59266;52.608;13.260;2023-06-26T09:32:10;100932.00;;;41.40
71463;BMP180;59266;52.608;13.260;2023-06-26T09:34:41;100935.00;;;42.20
71463;BMP180;59266;52.608;13.260;2023-06-26T09:37:08;100933.00;;;40.10
71463;BMP180;59266;52.608;13.260;2023-06-26T09:39:34;100925.00;;;40.00
71463;BMP180;59266;52.608;13.260;2023-06-26T09:42:01;100925.00;;;40.00
71463;BMP180;59266;52.608;13.260;2023-06-26T09:44:33;100925.00;;;39.80
71463;BMP180;59266;52.608;13.260;2023-06-26T09:47:02;100916.00;;;40.10
71463;BMP180;59266;52.608;13.260;2023-06-26T09:49:33;100922.00;;;40.80
71463;BMP180;59266;52.608;13.260;2023-06-26T09:52:00;100911.00;;;40.40
71463;BMP180;59266;52.608;13.260;2023-06-26T09:54:28;100908.00;;;41.80
71463;BMP180;59266;52.608;13.260;2023-06-26T09:57:09;100912.00;;;41.10
71463;BMP180;59266;52.608;13.260;2023-06-26T09:59:36;100909.00;;;40.20
71463;BMP180;59266;52.608;13.260;2023-06-26T10:02:05;100897.00;;;41.70
71463;BMP180;59266;52.608;13.260;2023-06-26T10:04:35;100901.00;;;42.70
71463;BMP180;59266;52.608;13.260;2023-06-26T10:07:08;100899.00;;;43.90
71463;BMP180;59266;52.608;13.260;2023-06-26T10:09:41;100894.00;;;40.40
71463;BMP180;59266;52.608;13.260;2023-06-26T10:12:18;100895.00;;;40.30
71463;BMP180;59266;52.608;13.260;2023-06-26T10:14:46;100891.00;;;42.50
71463;BMP180;59266;52.608;13.260;2023-06-26T10:17:17;100894.00;;;40.80
71463;BMP180;59266;52.608;13.260;2023-06-26T10:19:46;100886.00;;;41.90
71463;BMP180;59266;52.608;13.260;2023-06-26T10:22:17;100880.00;;;40.70
71463;BMP180;59266;52.608;13.260;2023-06-26T10:24:45;100874.00;;;41.70
71463;BMP180;59266;52.608;13.260;2023-06-26T10:27:17;100867.00;;;39.10
71463;BMP180;59266;52.608;13.260;2023-06-26T10:29:47;100860.00;;;39.80
71463;BMP180;59266;52.608;13.260;2023-06-26T10:32:15;100867.00;;;39.80
71463;BMP180;59266;52.608;13.260;2023-06-26T10:34:43;100865.00;;;39.60
71463;BMP180;59266;52.608;13.260;2023-06-26T10:37:11;100866.00;;;40.20
71463;BMP180;59266;52.608;13.260;2023-06-26T10:39:59;100868.00;;;39.40
71463;BMP180;59266;52.608;13.260;2023-06-26T10:42:37;100867.00;;;39.10
71463;BMP180;59266;52.608;13.260;2023-06-26T10:47:37;100852.00;;;38.90
71463;BMP180;59266;52.608;13.260;2023-06-26T10:53:22;100857.00;;;37.50
71463;BMP180;59266;52.608;13.260;2023-06-26T10:55:59;100849.00;;;36.70
71463;BMP180;59266;52.608;13.260;2023-06-26T11:01:23;100837.00;;;37.00
71463;BMP180;59266;52.608;13.260;2023-06-26T11:06:23;100835.00;;;38.00
71463;BMP180;59266;52.608;13.260;2023-06-26T11:08:54;100830.00;;;37.20
71463;BMP180;59266;52.608;13.260;2023-06-26T11:14:19;100823.00;;;38.10
71463;BMP180;59266;52.608;13.260;2023-06-26T11:16:47;100828.00;;;37.90
71463;BMP180;59266;52.608;13.260;2023-06-26T11:19:19;100831.00;;;37.70
71463;BMP180;59266;52.608;13.260;2023-06-26T11:21:49;100818.00;;;37.40
71463;BMP180;59266;52.608;13.260;2023-06-26T11:24:16;100822.00;;;38.30
71463;BMP180;59266;52.608;13.260;2023-06-26T11:26:44;100815.00;;;37.90
71463;BMP180;59266;52.608;13.260;2023-06-26T11:29:11;100810.00;;;38.20
71463;BMP180;59266;52.608;13.260;2023-06-26T11:31:39;100812.00;;;38.00
71463;BMP180;59266;52.608;13.260;2023-06-26T11:34:08;100807.00;;;37.90
71463;BMP180;59266;52.608;13.260;2023-06-26T11:36:36;100800.00;;;38.80
71463;BMP180;59266;52.608;13.260;2023-06-26T11:39:06;100791.00;;;37.40
71463;BMP180;59266;52.608;13.260;2023-06-26T11:41:37;100787.00;;;37.40
71463;BMP180;59266;52.608;13.260;2023-06-26T11:44:05;100801.00;;;36.00
71463;BMP180;59266;52.608;13.260;2023-06-26T11:46:34;100775.00;;;36.30
71463;BMP180;59266;52.608;13.260;2023-06-26T11:49:08;100775.00;;;37.30
71463;BMP180;59266;52.608;13.260;2023-06-26T11:51:35;100772.00;;;37.30
71463;BMP180;59266;52.608;13.260;2023-06-26T11:54:03;100766.00;;;37.40
71463;BMP180;59266;52.608;13.260;2023-06-26T11:56:33;100767.00;;;37.70
71463;BMP180;59266;52.608;13.260;2023-06-26T11:59:04;100754.00;;;37.60
71463;BMP180;59266;52.608;13.260;2023-06-26T12:01:38;100748.00;;;38.10
71463;BMP180;59266;52.608;13.260;2023-06-26T12:04:07;100747.00;;;37.80
71463;BMP180;59266;52.608;13.260;2023-06-26T12:06:40;100744.00;;;37.80
71463;BMP180;59266;52.608;13.260;2023-06-26T12:09:13;100746.00;;;38.50
71463;BMP180;59266;52.608;13.260;2023-06-26T12:11:42;100737.00;;;37.50
71463;BMP180;59266;52.608;13.260;2023-06-26T12:14:10;100740.00;;;38.40
71463;BMP180;59266;52.608;13.260;2023-06-26T12:16:42;100735.00;;;37.60
71463;BMP180;59266;52.608;13.260;2023-06-26T12:19:11;100731.00;;;37.10
71463;BMP180;59266;52.608;13.260;2023-06-26T12:24:06;100724.00;;;37.90
71463;BMP180;59266;52.608;13.260;2023-06-26T12:26:34;100719.00;;;37.00
71463;BMP180;59266;52.608;13.260;2023-06-26T12:29:08;100719.00;;;37.60
71463;BMP180;59266;52.608;13.260;2023-06-26T12:31:41;100711.00;;;38.60
71463;BMP180;59266;52.608;13.260;2023-06-26T12:34:09;100708.00;;;37.20
71463;BMP180;59266;52.608;13.260;2023-06-26T12:36:42;100701.00;;;36.90
71463;BMP180;59266;52.608;13.260;2023-06-26T12:39:12;100708.00;;;37.20
71463;BMP180;59266;52.608;13.260;2023-06-26T12:41:55;100691.00;;;36.10
71463;BMP180;59266;52.608;13.260;2023-06-26T12:44:27;100683.00;;;37.00
71463;BMP180;59266;52.608;13.260;2023-06-26T12:46:56;100680.00;;;36.60
71463;BMP180;59266;52.608;13.260;2023-06-26T12:49:43;100690.00;;;36.80
71463;BMP180;59266;52.608;13.260;2023-06-26T12:52:14;100696.00;;;35.50
71463;BMP180;59266;52.608;13.260;2023-06-26T12:54:42;100699.00;;;34.70
71463;BMP180;59266;52.608;13.260;2023-06-26T12:57:10;100692.00;;;35.10
71463;BMP180;59266;52.608;13.260;2023-06-26T12:59:40;100700.00;;;34.90
71463;BMP180;59266;52.608;13.260;2023-06-26T13:02:07;100694.00;;;35.20
71463;BMP180;59266;52.608;13.260;2023-06-26T13:04:34;100690.00;;;35.60
71463;BMP180;59266;52.608;13.260;2023-06-26T13:07:02;100686.00;;;34.70
71463;BMP180;59266;52.608;13.260;2023-06-26T13:09:32;100682.00;;;35.20
71463;BMP180;59266;52.608;13.260;2023-06-26T13:12:03;100684.00;;;34.50
71463;BMP180;59266;52.608;13.260;2023-06-26T13:14:30;100688.00;;;34.70
71463;BMP180;59266;52.608;13.260;2023-06-26T13:16:57;100677.00;;;34.30
71463;BMP180;59266;52.608;13.260;2023-06-26T13:19:27;100677.00;;;34.50
71463;BMP180;59266;52.608;13.260;2023-06-26T13:21:55;100668.00;;;34.30
71463;BMP180;59266;52.608;13.260;2023-06-26T13:24:21;100659.00;;;34.30
71463;BMP180;59266;52.608;13.260;2023-06-26T13:26:48;100649.00;;;34.00
71463;BMP180;59266;52.608;13.260;2023-06-26T13:29:17;100643.00;;;33.50
71463;BMP180;59266;52.608;13.260;2023-06-26T13:31:44;100635.00;;;33.70
71463;BMP180;59266;52.608;13.260;2023-06-26T13:34:22;100629.00;;;34.00
71463;BMP180;59266;52.608;13.260;2023-06-26T13:36:54;100614.00;;;33.20
71463;BMP180;59266;52.608;13.260;2023-06-26T13:39:21;100610.00;;;33.10
71463;BMP180;59266;52.608;13.260;2023-06-26T13:41:48;100608.00;;;33.30
71463;BMP180;59266;52.608;13.260;2023-06-26T13:44:15;100612.00;;;33.10
71463;BMP180;59266;52.608;13.260;2023-06-26T13:46:56;100615.00;;;33.20
71463;BMP180;59266;52.608;13.260;2023-06-26T13:49:23;100613.00;;;32.90
71463;BMP180;59266;52.608;13.260;2023-06-26T13:51:51;100596.00;;;33.10
71463;BMP180;59266;52.608;13.260;2023-06-26T13:54:18;100590.00;;;33.20
71463;BMP180;59266;52.608;13.260;2023-06-26T13:56:45;100589.00;;;33.10
71463;BMP180;59266;52.608;13.260;2023-06-26T13:59:15;100591.00;;;32.80
71463;BMP180;59266;52.608;13.260;2023-06-26T14:01:47;100615.00;;;32.70
71463;BMP180;59266;52.608;13.260;2023-06-26T14:04:16;100691.00;;;29.80
71463;BMP180;59266;52.608;13.260;2023-06-26T14:06:43;100678.00;;;28.40
71463;BMP180;59266;52.608;13.260;2023-06-26T14:09:11;100655.00;;;27.60